1982 HECTOR (1982210N11245)


On this page: IBTrACS data - Map and Plots - Positions - Intensities - Original source data

Summary

Start Jul 29
End Aug 3
Basin EP
LMI 65 kt
Sources hurdat_epa
jtwc_ep
td9636
atcf
In WMO? Yes
Previous storm 1982 GILMA (EP)
Previous in basin 1982 GILMA (EP)
Concurrent storms 1982 BESS (WP)
1982 ANDY (WP)
1982 GILMA (EP)
1982 HECTOR (EP)
1982 IVA (EP)
1982 CECIL (WP)
1982 JOHN (EP)
Next in basin 1982 IVA (EP)
Next storm 1982 IVA (EP)

top of page IBTrACS Data: File Access

top of page HURSAT Data: File Access

Image of storm

top of page Plots:

Map of storm track will not appear if FTP is down
Time series of cyclone Maximum Sustained Wind will not appear if FTP is down
Time series of cyclone Minimum Central Pressure will not appear if FTP is down

top of page Track Data:Position

hurdat_epa jtwc_ep td9636 atcf
Date Lat Lon Lat Lon Lat Lon Lat Lon
1982-07-29 00:00:00 11.3 -114.8 11.3 -114.8 11.3 -114.8 11.3 -114.8
1982-07-29 06:00:00 11.3 -116.0 11.3 -116.0 11.3 -116.0 11.3 -116.0
1982-07-29 12:00:00 11.3 -117.2 11.3 -117.2 11.3 -117.2 11.3 -117.2
1982-07-29 18:00:00 11.4 -118.4 11.4 -118.4 11.5 -118.4 11.4 -118.4
1982-07-30 00:00:00 11.8 -119.6 11.8 -119.6 11.8 -119.6 11.8 -119.6
1982-07-30 06:00:00 12.1 -120.4 12.1 -120.4 12.2 -120.6 12.1 -120.4
1982-07-30 12:00:00 12.7 -121.6 12.7 -121.6 12.7 -121.6 12.7 -121.6
1982-07-30 18:00:00 13.2 -122.6 13.2 -122.6 13.2 -122.6 13.2 -122.6
1982-07-31 00:00:00 14.0 -123.3 14.0 -123.3 14.0 -123.3 14.0 -123.3
1982-07-31 06:00:00 15.0 -124.2 15.0 -124.2 15.0 -124.2 15.0 -124.2
1982-07-31 12:00:00 16.1 -125.2 16.1 -125.2 16.1 -125.2 16.1 -125.2
1982-07-31 18:00:00 17.2 -126.2 17.2 -126.2 17.2 -126.3 17.2 -126.2
1982-08-01 00:00:00 18.2 -127.5 18.2 -127.5 18.2 -127.5 18.2 -127.5
1982-08-01 06:00:00 18.9 -128.9 18.9 -128.9 19.0 -128.9 18.9 -128.9
1982-08-01 12:00:00 19.5 -130.3 19.5 -130.3 19.5 -130.3 19.5 -130.3
1982-08-01 18:00:00 19.8 -131.7 19.8 -131.7 19.8 -131.7 19.8 -131.7
1982-08-02 00:00:00 20.0 -132.9 20.0 -132.9 20.0 -132.9 20.0 -132.9
1982-08-02 06:00:00 20.2 -134.0 20.2 -134.0 20.2 -134.0 20.2 -134.0
1982-08-02 12:00:00 20.4 -135.0 20.4 -135.0 20.4 -135.0 20.4 -135.0
1982-08-02 18:00:00 20.6 -136.1 20.6 -136.1 20.5 -135.9 20.6 -136.1
1982-08-03 00:00:00 20.7 -137.0 20.7 -137.0 20.7 -137.0 20.7 -137.0
1982-08-03 06:00:00 20.9 -138.6 20.9 -138.6 20.9 -138.6 20.9 -138.6

top of pageTrack Data:Intensity

hurdat_epa jtwc_ep td9636 atcf
Date Wind Pres Wind Pres Wind Pres Wind Pres
1982-07-29 00:00:00 30. 30. 30. 30.
1982-07-29 06:00:00 30. 30. 30. 30.
1982-07-29 12:00:00 35. 35. 35. 35.
1982-07-29 18:00:00 45. 45. 35. 45.
1982-07-30 00:00:00 45. 45. 45. 45.
1982-07-30 06:00:00 50. 50. 45. 50.
1982-07-30 12:00:00 55. 55. 55. 55.
1982-07-30 18:00:00 65. 65. 65. 65.
1982-07-31 00:00:00 65. 65. 65. 65.
1982-07-31 06:00:00 65. 65. 65. 65.
1982-07-31 12:00:00 65. 65. 65. 65.
1982-07-31 18:00:00 65. 65. 65. 65.
1982-08-01 00:00:00 55. 55. 55. 55.
1982-08-01 06:00:00 50. 50. 55. 50.
1982-08-01 12:00:00 50. 50. 50. 50.
1982-08-01 18:00:00 35. 35. 50. 35.
1982-08-02 00:00:00 35. 35. 35. 35.
1982-08-02 06:00:00 35. 35. 35. 35.
1982-08-02 12:00:00 30. 30. 30. 30.
1982-08-02 18:00:00 25. 25. 30. 25.
1982-08-03 00:00:00 25. 25. 25. 25.
1982-08-03 06:00:00 25. 25. 25. 25.

top of page Links to source data

Source Source file Format
hurdat_epa tracks1949to2011_epa.html:397:HECTOR HURDAT
jtwc_ep bep131982.txt ATCF
td9636 cons_worldwide_trop_cyclone_18710101-19891231-002:Line=4581 TD 9636
atcf bep081982.dat ATCF